createdAt,value
2019-02-07T00:04:02.671Z,7.67
2019-02-07T00:09:08.272Z,10.83
2019-02-07T00:14:11.550Z,8.37
2019-02-07T00:19:14.910Z,8.27
2019-02-07T00:24:18.434Z,8.47
2019-02-07T00:29:21.980Z,9.30
2019-02-07T00:34:25.260Z,8.90
2019-02-07T00:39:28.838Z,9.43
2019-02-07T00:44:32.122Z,9.40
2019-02-07T00:49:35.429Z,9.07
2019-02-07T00:54:38.758Z,7.93
2019-02-07T00:59:42.328Z,9.93
2019-02-07T01:04:45.841Z,9.33
2019-02-07T01:09:49.412Z,7.97
2019-02-07T01:15:01.613Z,9.07
2019-02-07T01:19:57.831Z,8.97
2019-02-07T01:25:01.116Z,8.63
2019-02-07T01:30:10.577Z,6.87
2019-02-07T01:35:14.548Z,11.87
2019-02-07T01:40:19.313Z,8.87
2019-02-07T01:45:23.931Z,8.57
2019-02-07T01:50:27.280Z,9.80
2019-02-07T01:55:30.558Z,9.63
2019-02-07T02:00:34.161Z,7.73
2019-02-07T02:05:37.442Z,9.70
2019-02-07T02:10:40.974Z,10.47
2019-02-07T02:15:44.501Z,10.17
2019-02-07T02:20:47.791Z,9.40
2019-02-07T02:25:51.313Z,10.47
2019-02-07T02:30:54.582Z,8.43
2019-02-07T02:35:57.865Z,9.10
2019-02-07T02:41:01.146Z,10.03
2019-02-07T02:46:04.676Z,10.90
2019-02-07T02:51:07.946Z,9.70
2019-02-07T02:56:11.293Z,11.00
2019-02-07T03:01:16.456Z,11.57
2019-02-07T03:06:21.386Z,9.13
2019-02-07T03:11:26.306Z,11.73
2019-02-07T03:16:37.673Z,10.83
2019-02-07T03:21:49.028Z,10.77
2019-02-07T03:27:05.868Z,8.03
2019-02-07T03:32:13.731Z,10.00
2019-02-07T03:37:35.104Z,12.43
2019-02-07T03:42:40.022Z,11.00
2019-02-07T03:47:55.108Z,10.23
2019-02-07T03:53:16.339Z,10.83
2019-02-07T03:58:24.770Z,9.93
2019-02-07T04:03:29.686Z,10.43
2019-02-07T04:08:49.949Z,8.00
2019-02-07T04:13:54.872Z,10.53
2019-02-07T04:19:03.018Z,8.70
2019-02-07T04:24:19.937Z,7.63
2019-02-07T04:29:30.714Z,8.87
2019-02-07T04:34:35.638Z,9.70
2019-02-07T04:39:58.417Z,8.23
2019-02-07T04:45:09.297Z,8.43
2019-02-07T04:50:30.581Z,8.27
2019-02-07T04:55:36.727Z,9.43
2019-02-07T05:00:44.535Z,12.07
2019-02-07T05:05:49.475Z,8.87
2019-02-07T05:11:03.510Z,8.70
2019-02-07T05:16:24.357Z,8.53
2019-02-07T05:21:47.899Z,8.77
2019-02-07T05:26:55.659Z,7.13
2019-02-07T05:32:17.016Z,9.17
2019-02-07T05:37:30.452Z,8.67
2019-02-07T05:42:36.324Z,9.73
2019-02-07T05:47:56.003Z,8.67
2019-02-07T05:53:00.933Z,10.87
2019-02-07T05:58:09.509Z,8.53
2019-02-07T06:03:32.728Z,9.37
2019-02-07T06:08:40.299Z,10.27
2019-02-07T06:14:00.503Z,8.77
2019-02-07T06:19:17.976Z,10.17
2019-02-07T06:24:23.152Z,10.03
2019-02-07T06:29:28.080Z,10.30
2019-02-07T06:34:35.921Z,12.27
2019-02-07T06:39:43.344Z,10.67
2019-02-07T06:44:54.799Z,10.83
2019-02-07T06:49:59.720Z,13.00
2019-02-07T06:55:16.917Z,12.17
2019-02-07T07:00:31.027Z,10.03
2019-02-07T07:05:45.079Z,11.83
2019-02-07T07:10:59.191Z,9.73
2019-02-07T07:16:10.242Z,9.97
2019-02-07T07:21:15.405Z,9.50
2019-02-07T07:26:29.073Z,9.37
2019-02-07T07:31:37.190Z,6.77
2019-02-07T07:36:45.196Z,9.73
2019-02-07T07:41:55.899Z,9.50
2019-02-07T07:47:03.308Z,7.97
2019-02-07T07:52:13.981Z,7.60
2019-02-07T07:57:19.138Z,11.63
2019-02-07T08:02:24.070Z,8.87
2019-02-07T08:07:29.241Z,10.47
2019-02-07T08:12:49.091Z,10.13
2019-02-07T08:18:10.516Z,8.00
2019-02-07T08:23:18.127Z,5.97
2019-02-07T08:28:35.264Z,12.20
2019-02-07T08:33:40.812Z,9.90
2019-02-07T08:38:51.961Z,8.03
2019-02-07T08:44:14.141Z,9.63
2019-02-07T08:49:24.497Z,8.93
2019-02-07T08:54:32.632Z,9.33
2019-02-07T08:59:40.215Z,9.40
2019-02-07T09:05:03.237Z,8.77
2019-02-07T09:10:17.238Z,9.00
2019-02-07T09:15:22.400Z,9.27
2019-02-07T09:20:27.579Z,10.63
2019-02-07T09:25:48.838Z,10.13
2019-02-07T09:30:56.407Z,10.50
2019-02-07T09:36:05.638Z,11.47
2019-02-07T09:41:13.524Z,10.00
2019-02-07T09:46:34.744Z,9.70
2019-02-07T09:51:42.336Z,10.00
2019-02-07T09:56:59.467Z,6.97
2019-02-07T10:02:07.591Z,11.37
2019-02-07T10:07:21.732Z,7.03
2019-02-07T10:12:27.186Z,5.57
2019-02-07T10:17:41.007Z,7.83
2019-02-07T10:22:58.595Z,5.67
2019-02-07T10:28:03.769Z,6.00
2019-02-07T10:33:14.966Z,8.27
2019-02-07T10:38:38.015Z,6.73
2019-02-07T10:43:45.887Z,5.87
2019-02-07T10:49:07.329Z,8.33
2019-02-07T10:54:16.674Z,7.97
2019-02-07T10:59:21.926Z,11.67
2019-02-07T11:04:39.324Z,9.40
2019-02-07T11:09:53.541Z,11.27
2019-02-07T11:14:58.462Z,12.97
2019-02-07T11:20:03.384Z,14.10
2019-02-07T11:25:27.033Z,18.90
2019-02-07T11:30:34.796Z,20.20
2019-02-07T11:35:39.716Z,11.77
2019-02-07T11:40:56.693Z,12.73
2019-02-07T11:46:18.008Z,11.50
2019-02-07T11:51:29.020Z,8.90
2019-02-07T11:56:37.051Z,15.40
2019-02-07T12:01:50.886Z,17.30
2019-02-07T12:07:12.171Z,8.43
2019-02-07T12:12:33.728Z,11.63
2019-02-07T12:17:51.985Z,12.83
2019-02-07T12:23:12.036Z,10.70
2019-02-07T12:28:36.206Z,9.90
2019-02-07T12:33:56.396Z,18.00
2019-02-07T12:39:05.794Z,12.50
2019-02-07T12:44:20.060Z,15.10
2019-02-07T12:49:29.467Z,10.20
2019-02-07T12:54:37.738Z,16.53
2019-02-07T12:59:54.800Z,10.30
2019-02-07T13:05:16.172Z,19.33
2019-02-07T13:10:27.346Z,19.67
2019-02-07T13:15:34.975Z,14.43
2019-02-07T13:20:42.705Z,10.07
2019-02-07T13:25:50.029Z,11.00
2019-02-07T13:30:54.976Z,11.27
2019-02-07T13:36:00.127Z,7.90
2019-02-07T13:41:11.197Z,8.13
2019-02-07T13:46:28.547Z,11.70
2019-02-07T13:51:51.325Z,12.33
2019-02-07T13:56:58.913Z,14.07
2019-02-07T14:02:16.290Z,11.70
2019-02-07T14:07:39.804Z,12.20
2019-02-07T14:12:44.302Z,10.57
2019-02-07T14:17:55.285Z,7.60
2019-02-07T14:23:16.436Z,10.57
2019-02-07T14:28:30.575Z,7.17
2019-02-07T14:33:44.484Z,8.37
2019-02-07T14:38:52.403Z,8.90
2019-02-07T14:44:03.658Z,7.00
2019-02-07T14:49:06.942Z,6.97
2019-02-07T14:54:10.468Z,6.40
2019-02-07T14:59:13.817Z,7.97
2019-02-07T15:04:17.089Z,9.57
2019-02-07T15:09:22.543Z,9.23
2019-02-07T15:14:26.083Z,7.97
2019-02-07T15:19:29.622Z,9.10
2019-02-07T15:24:32.948Z,10.37
2019-02-07T15:29:36.240Z,4.87
2019-02-07T15:34:41.069Z,3.47
2019-02-07T15:46:37.047Z,8.93
2019-02-07T15:51:17.921Z,6.70
2019-02-07T15:56:32.032Z,5.20
2019-02-07T16:01:37.855Z,8.57
2019-02-07T16:06:49.028Z,5.93
2019-02-07T16:11:52.330Z,5.80
2019-02-07T16:16:55.907Z,5.93
2019-02-07T16:21:59.434Z,11.43
2019-02-07T16:27:04.601Z,4.83
2019-02-07T16:32:08.052Z,7.37
2019-02-07T16:37:11.328Z,9.00
2019-02-07T16:42:14.614Z,6.00
2019-02-07T16:47:18.728Z,5.13
2019-02-07T16:52:23.728Z,9.37
2019-02-07T16:57:27.286Z,12.03
2019-02-07T17:02:30.577Z,6.57
2019-02-07T17:07:33.857Z,4.27
2019-02-07T17:12:37.387Z,8.47
2019-02-07T17:17:45.482Z,9.10
2019-02-07T17:22:51.767Z,7.20
2019-02-07T17:27:57.950Z,7.77
2019-02-07T17:33:03.479Z,4.60
2019-02-07T17:38:07.064Z,6.87
2019-02-07T17:43:14.651Z,5.47
2019-02-07T17:48:20.242Z,8.50
2019-02-07T17:53:23.860Z,3.97
2019-02-07T17:58:28.097Z,6.87
2019-02-07T18:03:33.327Z,6.73
2019-02-07T18:08:36.930Z,9.10
2019-02-07T18:13:40.650Z,6.03
2019-02-07T18:18:44.580Z,11.10
2019-02-07T18:23:48.047Z,5.57
2019-02-07T18:28:53.666Z,7.63
2019-02-07T18:33:56.955Z,5.43
2019-02-07T18:39:00.243Z,6.57
2019-02-07T18:44:03.544Z,2.43
2019-02-07T18:49:09.434Z,3.73
2019-02-07T18:54:12.970Z,5.57
2019-02-07T18:59:16.256Z,3.67
2019-02-07T19:04:19.781Z,5.83
2019-02-07T19:09:23.361Z,5.93
2019-02-07T19:14:27.084Z,7.93
2019-02-07T19:19:30.365Z,8.33
2019-02-07T19:24:33.635Z,5.70
2019-02-07T19:29:44.734Z,7.73
2019-02-07T19:34:48.284Z,5.00
2019-02-07T19:39:51.815Z,5.30
2019-02-07T19:44:55.356Z,3.33
2019-02-07T19:49:58.950Z,4.80
2019-02-07T19:55:02.514Z,3.07
2019-02-07T20:00:11.822Z,3.90
2019-02-07T20:05:15.335Z,4.97
2019-02-07T20:10:26.950Z,4.73
2019-02-07T20:15:36.730Z,5.30
2019-02-07T20:20:40.790Z,4.50
2019-02-07T20:25:44.810Z,4.30
2019-02-07T20:35:52.499Z,3.70
2019-02-07T20:40:56.036Z,3.87
2019-02-07T20:45:59.556Z,8.40
2019-02-07T20:51:02.879Z,5.87
2019-02-07T20:56:06.346Z,5.73
2019-02-07T21:01:09.653Z,5.33
2019-02-07T21:06:12.949Z,5.17
2019-02-07T21:11:16.234Z,3.80
2019-02-07T21:16:19.526Z,6.20
2019-02-07T21:21:23.073Z,4.40
2019-02-07T21:26:27.778Z,4.27
2019-02-07T21:31:31.583Z,5.97
2019-02-07T21:36:34.878Z,6.83
2019-02-07T21:41:38.158Z,5.40
2019-02-07T21:46:41.684Z,3.53
2019-02-07T21:51:45.210Z,3.93
2019-02-07T21:56:48.747Z,3.80
2019-02-07T22:01:52.143Z,5.33
2019-02-07T22:06:55.454Z,4.47
2019-02-07T22:11:58.987Z,3.90
2019-02-07T22:17:02.277Z,6.20
2019-02-07T22:22:05.556Z,7.30
2019-02-07T22:27:09.090Z,2.87
2019-02-07T22:32:12.617Z,2.50
2019-02-07T22:37:16.137Z,2.63
2019-02-07T22:42:19.409Z,4.53
2019-02-07T22:47:22.944Z,4.57
2019-02-07T22:52:26.224Z,3.50
2019-02-07T22:57:29.505Z,5.37
2019-02-07T23:02:33.110Z,4.57
2019-02-07T23:07:36.602Z,6.03
2019-02-07T23:12:39.906Z,4.00
2019-02-07T23:17:43.223Z,5.90
2019-02-07T23:22:46.763Z,5.13
2019-02-07T23:27:50.299Z,4.57
2019-02-07T23:32:53.661Z,4.03
2019-02-07T23:37:57.188Z,4.00
2019-02-07T23:43:00.475Z,3.87
2019-02-07T23:48:04.237Z,4.33
2019-02-07T23:53:14.404Z,4.43
2019-02-07T23:58:12.807Z,3.03
